Time;durP1;ratioP1;P1;durP2;ratioP2;P2;SDS_P1;SDS_P2;PMS_P1;PMS_P2;Temp;Humidity;BMP_temperature;BMP_pressure;BME280_temperature;BME280_humidity;BME280_pressure;Samples;Min_cycle;Max_cycle;Signal;HPM_P1;HPM_P2
2023/01/25 00:01:23;;;;;;;84.72;41.60;;;2.80;99.90;;;;;;4937218;29;20019;-84
2023/01/25 00:03:49;;;;;;;79.78;40.15;;;2.80;99.90;;;;;;4920063;29;20344;-84
2023/01/25 00:06:15;;;;;;;97.93;45.05;;;2.80;99.90;;;;;;4919796;29;20046;-84
2023/01/25 00:08:40;;;;;;;91.07;44.80;;;2.80;99.90;;;;;;4919994;29;20370;-83
2023/01/25 00:11:06;;;;;;;129.88;58.08;;;2.80;99.90;;;;;;4920941;29;20035;-84
2023/01/25 00:13:32;;;;;;;90.20;40.55;;;2.70;99.90;;;;;;4947533;29;20034;-84
2023/01/25 00:16:02;;;;;;;105.28;48.38;;;2.70;99.90;;;;;;4937014;29;20098;-84
2023/01/25 00:18:28;;;;;;;110.22;49.53;;;2.80;99.90;;;;;;4934399;29;20038;-83
2023/01/25 00:20:54;;;;;;;133.18;55.47;;;2.80;99.90;;;;;;4955885;29;20019;-84
2023/01/25 00:23:19;;;;;;;91.97;39.85;;;2.80;99.90;;;;;;4938716;29;20023;-83
2023/01/25 00:25:45;;;;;;;89.32;41.53;;;2.80;99.90;;;;;;4938774;29;20019;-84
2023/01/25 00:28:10;;;;;;;57.30;26.85;;;2.80;99.90;;;;;;4955765;29;20140;-83
2023/01/25 00:30:37;;;;;;;50.90;25.48;;;2.70;99.90;;;;;;4941028;29;20022;-84
2023/01/25 00:33:25;;;;;;;49.53;25.23;;;2.70;99.90;;;;;;4947308;29;20035;-83
2023/01/25 00:35:55;;;;;;;82.97;36.50;;;2.70;99.90;;;;;;4955534;29;20050;-82
2023/01/25 00:38:33;;;;;;;78.90;37.13;;;2.70;99.90;;;;;;4937994;29;20047;-83
2023/01/25 00:40:59;;;;;;;58.75;25.88;;;2.60;99.90;;;;;;4938608;29;20051;-84
2023/01/25 00:43:25;;;;;;;47.42;20.80;;;2.70;99.90;;;;;;4938612;29;20055;-83
2023/01/25 00:45:51;;;;;;;80.55;33.83;;;2.60;99.90;;;;;;4938421;29;20030;-84
2023/01/25 00:48:17;;;;;;;70.65;30.30;;;2.60;99.90;;;;;;4955492;28;20023;-82
2023/01/25 00:50:43;;;;;;;63.78;28.20;;;2.60;99.90;;;;;;4955397;29;20051;-83
2023/01/25 00:53:08;;;;;;;69.75;31.25;;;2.60;99.90;;;;;;4955808;29;20110;-84
2023/01/25 00:55:34;;;;;;;69.57;28.92;;;2.60;99.90;;;;;;4938396;29;20358;-84
2023/01/25 00:58:00;;;;;;;56.42;28.50;;;2.60;99.90;;;;;;4919448;29;20100;-83
2023/01/25 01:00:25;;;;;;;60.38;29.17;;;2.60;99.90;;;;;;4936111;29;20028;-85
2023/01/25 01:02:51;;;;;;;77.20;35.03;;;2.60;99.90;;;;;;4919237;29;20452;-84
2023/01/25 01:05:17;;;;;;;81.85;39.67;;;2.60;99.90;;;;;;4936347;29;20371;-84
2023/01/25 01:07:43;;;;;;;82.10;40.13;;;2.60;99.90;;;;;;4935206;29;20118;-85
2023/01/25 01:10:09;;;;;;;86.25;40.75;;;2.60;99.90;;;;;;4919159;29;20038;-85
2023/01/25 01:12:34;;;;;;;96.57;44.80;;;2.60;99.90;;;;;;4936130;29;20051;-84
2023/01/25 01:15:00;;;;;;;92.10;44.03;;;2.60;99.90;;;;;;4936463;29;20486;-84
2023/01/25 01:17:26;;;;;;;117.85;54.58;;;2.60;99.90;;;;;;4936788;29;20027;-82
2023/01/25 01:19:52;;;;;;;128.18;61.50;;;2.60;99.90;;;;;;4955407;29;20125;-82
2023/01/25 01:22:18;;;;;;;142.40;65.43;;;2.50;99.90;;;;;;4938056;29;20055;-82
2023/01/25 01:24:43;;;;;;;114.35;53.85;;;2.50;99.90;;;;;;4955465;29;20035;-82
2023/01/25 01:27:09;;;;;;;115.50;53.40;;;2.50;99.90;;;;;;4936409;29;20031;-83
2023/01/25 01:29:35;;;;;;;97.45;48.08;;;2.50;99.90;;;;;;4936042;29;20633;-83
2023/01/25 01:32:00;;;;;;;103.88;51.25;;;2.40;99.90;;;;;;4919104;29;20024;-82
2023/01/25 01:34:26;;;;;;;96.88;46.83;;;2.40;99.90;;;;;;4918883;29;20122;-83
2023/01/25 01:36:52;;;;;;;80.50;39.15;;;2.40;99.90;;;;;;4938485;29;20051;-82
2023/01/25 01:39:18;;;;;;;71.25;35.22;;;2.40;99.90;;;;;;4954077;29;20045;-83
2023/01/25 01:41:43;;;;;;;61.90;30.52;;;2.50;99.90;;;;;;4956739;28;20031;-83
2023/01/25 01:44:19;;;;;;;71.22;33.20;;;2.50;99.90;;;;;;4955118;29;20042;-82
2023/01/25 01:46:58;;;;;;;57.95;28.15;;;2.50;99.90;;;;;;4938056;29;20054;-83
2023/01/25 01:49:28;;;;;;;51.65;24.20;;;2.40;99.90;;;;;;4938038;29;20027;-83
2023/01/25 01:52:06;;;;;;;50.47;24.05;;;2.40;99.90;;;;;;4954671;29;20373;-84
2023/01/25 01:54:37;;;;;;;92.85;40.13;;;2.40;99.90;;;;;;4934642;29;20146;-83
2023/01/25 01:57:10;;;;;;;49.03;23.75;;;2.40;99.90;;;;;;4936151;29;20102;-83
2023/01/25 01:59:41;;;;;;;;;;;2.40;99.90;;;;;;4935026;29;20407;-83
2023/01/25 02:02:07;;;;;;;46.35;21.25;;;2.40;99.90;;;;;;4938702;29;19986;-83
2023/01/25 02:04:34;;;;;;;45.55;20.58;;;2.40;99.90;;;;;;4938086;29;20115;-83
2023/01/25 02:07:10;;;;;;;52.60;24.63;;;2.30;99.90;;;;;;4939067;29;20456;-83
2023/01/25 02:09:36;;;;;;;55.00;25.20;;;2.30;99.90;;;;;;4939265;29;20031;-83
2023/01/25 02:12:03;;;;;;;58.78;27.63;;;2.30;99.90;;;;;;4938792;29;20031;-83
2023/01/25 02:14:30;;;;;;;74.20;32.30;;;2.40;99.90;;;;;;4937884;29;20074;-83
2023/01/25 02:16:56;;;;;;;74.00;35.63;;;2.40;99.90;;;;;;4937854;29;20020;-83
2023/01/25 02:19:42;;;;;;;65.47;33.00;;;2.30;99.90;;;;;;4937740;29;20042;-82
2023/01/25 02:22:12;;;;;;;67.63;30.60;;;2.40;99.90;;;;;;4937870;29;20030;-84
2023/01/25 02:24:49;;;;;;;71.32;33.90;;;2.40;99.90;;;;;;4937716;29;20066;-83
2023/01/25 02:27:15;;;;;;;53.83;24.48;;;2.40;99.90;;;;;;4938799;29;20023;-83
2023/01/25 02:29:42;;;;;;;50.03;22.85;;;2.30;99.90;;;;;;4937790;29;20023;-83
2023/01/25 02:32:08;;;;;;;64.13;27.30;;;2.30;99.90;;;;;;4937704;29;20028;-82
2023/01/25 02:34:35;;;;;;;54.67;23.23;;;2.30;99.90;;;;;;4955227;29;20158;-83
2023/01/25 02:37:00;;;;;;;68.00;29.55;;;2.30;99.90;;;;;;4939821;28;20043;-82
2023/01/25 02:39:27;;;;;;;77.47;32.55;;;2.40;99.90;;;;;;4956807;29;20022;-82
2023/01/25 02:41:53;;;;;;;49.78;21.75;;;2.40;99.90;;;;;;4940127;29;20027;-82
2023/01/25 02:44:31;;;;;;;44.13;22.17;;;2.30;99.90;;;;;;4957244;29;20451;-83
2023/01/25 02:46:57;;;;;;;67.07;29.65;;;2.30;99.90;;;;;;4956850;29;20050;-84
2023/01/25 02:49:23;;;;;;;53.28;23.55;;;2.20;99.90;;;;;;4939798;29;20126;-84
2023/01/25 02:51:56;;;;;;;58.83;29.05;;;2.30;99.90;;;;;;4939899;29;20077;-83
2023/01/25 02:54:24;;;;;;;45.72;22.00;;;2.30;99.90;;;;;;4939615;29;20174;-83
2023/01/25 02:56:50;;;;;;;52.85;24.02;;;2.30;99.90;;;;;;4937268;29;20111;-82
2023/01/25 02:59:17;;;;;;;43.17;20.83;;;2.20;99.90;;;;;;4939597;29;20475;-82
2023/01/25 03:01:44;;;;;;;48.83;22.25;;;2.30;99.90;;;;;;4956601;29;20042;-83
2023/01/25 03:04:10;;;;;;;53.78;23.50;;;2.20;99.90;;;;;;4939564;29;20496;-83
2023/01/25 03:06:37;;;;;;;43.15;18.88;;;2.30;99.90;;;;;;4956797;29;20023;-82
2023/01/25 03:09:06;;;;;;;48.17;21.13;;;2.30;99.90;;;;;;4939346;29;20082;-83
2023/01/25 03:11:32;;;;;;;46.80;22.08;;;2.20;99.90;;;;;;4956382;28;20026;-83
2023/01/25 03:13:58;;;;;;;51.08;22.90;;;2.30;99.90;;;;;;4939251;29;20071;-84
2023/01/25 03:16:23;;;;;;;60.97;27.55;;;2.30;99.90;;;;;;4956473;29;20062;-83
2023/01/25 03:18:53;;;;;;;57.40;27.52;;;2.30;99.90;;;;;;4939052;29;20039;-82
2023/01/25 03:21:21;;;;;;;53.42;25.70;;;2.30;99.90;;;;;;4939175;29;20133;-83
2023/01/25 03:23:47;;;;;;;54.65;24.88;;;2.30;99.90;;;;;;4939360;29;20031;-83
2023/01/25 03:26:18;;;;;;;53.95;24.00;;;2.30;99.90;;;;;;4950735;29;20023;-83
2023/01/25 03:28:44;;;;;;;59.22;26.98;;;2.30;99.90;;;;;;4939090;29;20471;-83
2023/01/25 03:31:12;;;;;;;61.55;29.42;;;2.40;99.90;;;;;;4939135;29;20069;-83
2023/01/25 03:33:38;;;;;;;62.83;30.00;;;2.40;99.90;;;;;;4938878;29;20088;-84
2023/01/25 03:36:05;;;;;;;65.93;31.17;;;2.40;99.90;;;;;;4955752;29;20015;-84
2023/01/25 03:38:31;;;;;;;55.75;27.98;;;2.40;99.90;;;;;;4955730;28;20126;-83
2023/01/25 03:40:57;;;;;;;55.53;25.77;;;2.40;99.90;;;;;;4955871;29;20027;-84
2023/01/25 03:43:23;;;;;;;48.65;23.65;;;2.40;99.90;;;;;;4956226;29;20038;-82
2023/01/25 03:45:57;;;;;;;46.60;20.85;;;2.40;99.90;;;;;;4939286;29;20038;-83
2023/01/25 03:48:24;;;;;;;52.17;23.23;;;2.40;99.90;;;;;;4939121;29;20023;-82
2023/01/25 03:50:55;;;;;;;53.58;25.02;;;2.40;99.90;;;;;;4956097;29;20452;-83
2023/01/25 03:53:31;;;;;;;54.20;25.67;;;2.40;99.90;;;;;;4955857;29;20426;-83
2023/01/25 03:56:07;;;;;;;63.22;28.58;;;2.40;99.90;;;;;;4956299;29;20034;-83
2023/01/25 03:58:34;;;;;;;61.55;29.83;;;2.40;99.90;;;;;;4955853;29;20015;-82
2023/01/25 04:01:00;;;;;;;67.00;32.05;;;2.40;99.90;;;;;;4938398;29;20363;-84
2023/01/25 04:03:27;;;;;;;72.57;32.05;;;2.40;99.90;;;;;;4955441;29;20027;-83
2023/01/25 04:05:54;;;;;;;70.40;31.33;;;2.50;99.90;;;;;;4938523;29;20023;-83
2023/01/25 04:08:21;;;;;;;71.65;31.05;;;2.40;99.90;;;;;;4937852;29;20039;-83
2023/01/25 04:10:55;;;;;;;62.75;30.15;;;2.40;99.90;;;;;;4938269;29;20034;-83
2023/01/25 04:13:23;;;;;;;63.60;29.25;;;2.40;99.90;;;;;;4955360;29;20034;-84
2023/01/25 04:15:49;;;;;;;60.03;27.45;;;2.50;99.90;;;;;;4938041;29;20454;-83
2023/01/25 04:18:16;;;;;;;51.35;25.80;;;2.50;99.90;;;;;;4938226;29;20034;-82
2023/01/25 04:20:42;;;;;;;49.40;22.52;;;2.50;99.90;;;;;;4955265;29;20019;-82
2023/01/25 04:23:08;;;;;;;45.40;21.80;;;2.50;99.90;;;;;;4937533;29;20035;-83
2023/01/25 04:25:34;;;;;;;46.70;21.55;;;2.50;99.90;;;;;;4937927;29;20023;-83
2023/01/25 04:28:00;;;;;;;43.80;20.38;;;2.50;99.90;;;;;;4938353;29;20027;-83
2023/01/25 04:30:25;;;;;;;42.38;20.73;;;2.50;99.90;;;;;;4955733;29;20027;-82
2023/01/25 04:32:51;;;;;;;58.08;27.50;;;2.50;99.90;;;;;;4937697;29;20460;-82
2023/01/25 04:35:19;;;;;;;55.03;24.70;;;2.50;99.90;;;;;;4955321;29;20070;-84
2023/01/25 04:37:53;;;;;;;50.03;21.70;;;2.50;99.90;;;;;;4937705;28;20047;-84
2023/01/25 04:40:19;;;;;;;48.08;21.10;;;2.50;99.90;;;;;;4954806;29;20046;-83
2023/01/25 04:42:45;;;;;;;52.63;22.35;;;2.40;99.90;;;;;;4938019;29;20057;-84
2023/01/25 04:45:10;;;;;;;51.97;21.55;;;2.40;99.90;;;;;;4938092;29;20114;-82
2023/01/25 04:47:36;;;;;;;47.58;23.33;;;2.40;99.90;;;;;;4937858;29;20035;-83
2023/01/25 04:50:02;;;;;;;46.17;20.23;;;2.40;99.90;;;;;;4937866;29;20078;-83
2023/01/25 04:52:27;;;;;;;45.13;20.48;;;2.40;99.90;;;;;;4937632;29;20454;-83
2023/01/25 04:54:53;;;;;;;47.67;20.30;;;2.40;99.90;;;;;;4937712;29;20031;-83
2023/01/25 04:57:19;;;;;;;46.47;19.67;;;2.40;99.90;;;;;;4950271;29;20023;-84
2023/01/25 04:59:44;;;;;;;45.33;19.30;;;2.30;99.90;;;;;;4936341;29;20102;-82
2023/01/25 05:02:10;;;;;;;42.25;19.25;;;2.30;99.90;;;;;;4938469;29;20028;-84
2023/01/25 05:04:36;;;;;;;49.55;19.27;;;2.30;99.90;;;;;;4937305;29;20055;-83
2023/01/25 05:07:02;;;;;;;52.10;19.35;;;2.30;99.90;;;;;;4937459;29;20019;-83
2023/01/25 05:09:27;;;;;;;53.50;20.73;;;2.40;99.90;;;;;;4954933;29;20098;-83
2023/01/25 05:11:53;;;;;;;53.70;20.52;;;2.40;99.90;;;;;;4937048;29;20023;-83
2023/01/25 05:14:19;;;;;;;44.67;19.55;;;2.40;99.90;;;;;;4954354;29;20383;-82
2023/01/25 05:16:46;;;;;;;44.35;19.35;;;2.30;99.90;;;;;;4954373;29;20027;-83
2023/01/25 05:19:11;;;;;;;50.05;20.63;;;2.40;99.90;;;;;;4937415;29;20033;-83
2023/01/25 05:24:22;;;;;;;54.97;25.08;;;2.40;99.90;;;;;;4954609;29;20046;-84
2023/01/25 05:27:02;;;;;;;57.08;25.40;;;2.30;99.90;;;;;;4948576;29;20023;-83
2023/01/25 05:29:35;;;;;;;61.35;26.75;;;2.30;99.90;;;;;;4951929;29;20022;-83
2023/01/25 05:32:05;;;;;;;64.18;30.85;;;2.30;99.90;;;;;;4954975;29;20019;-82
2023/01/25 05:34:32;;;;;;;74.18;33.85;;;2.30;99.90;;;;;;4937266;28;20109;-83
2023/01/25 05:36:58;;;;;;;71.57;33.85;;;2.30;99.90;;;;;;4958416;28;20043;-82
2023/01/25 05:39:24;;;;;;;70.28;32.83;;;2.30;99.90;;;;;;4936728;29;20026;-82
2023/01/25 05:41:50;;;;;;;70.05;30.40;;;2.30;99.90;;;;;;4941017;29;20035;-82
2023/01/25 05:44:15;;;;;;;63.97;27.80;;;2.30;99.90;;;;;;4941071;29;20143;-82
2023/01/25 05:46:41;;;;;;;61.45;29.33;;;2.30;99.90;;;;;;4940262;29;20023;-83
2023/01/25 05:49:07;;;;;;;66.38;30.83;;;2.30;99.90;;;;;;4940307;29;20074;-82
2023/01/25 05:51:34;;;;;;;71.90;30.35;;;2.40;99.90;;;;;;4940801;29;20410;-84
2023/01/25 05:54:00;;;;;;;61.30;30.35;;;2.40;99.90;;;;;;4957564;29;20043;-84
2023/01/25 05:56:26;;;;;;;64.82;28.75;;;2.40;99.90;;;;;;4953077;29;20063;-82
2023/01/25 05:58:57;;;;;;;63.58;28.45;;;2.30;99.90;;;;;;4955363;29;20062;-83
2023/01/25 06:01:24;;;;;;;72.70;33.60;;;2.30;99.90;;;;;;4940669;29;20029;-83
2023/01/25 06:03:50;;;;;;;69.53;32.88;;;2.30;99.90;;;;;;4957859;29;20446;-83
2023/01/25 06:06:16;;;;;;;74.60;34.35;;;2.30;99.90;;;;;;4937351;29;20058;-82
2023/01/25 06:08:42;;;;;;;83.00;38.67;;;2.40;99.90;;;;;;4940389;29;20086;-82
2023/01/25 06:11:10;;;;;;;65.55;31.92;;;2.30;99.90;;;;;;4940268;29;20027;-82
2023/01/25 06:13:36;;;;;;;60.05;28.08;;;2.40;99.90;;;;;;4957586;29;20414;-83
2023/01/25 06:16:02;;;;;;;72.80;31.35;;;2.40;99.90;;;;;;4934592;29;20235;-83
2023/01/25 06:18:33;;;;;;;67.00;30.35;;;2.40;99.90;;;;;;4952354;29;20026;-82
2023/01/25 06:20:59;;;;;;;69.57;33.25;;;2.40;99.90;;;;;;4940453;29;20023;-83
2023/01/25 06:23:26;;;;;;;92.88;37.70;;;2.40;99.90;;;;;;4940400;29;20031;-83
2023/01/25 06:25:55;;;;;;;63.35;31.52;;;2.40;99.90;;;;;;4957765;29;20027;-84
2023/01/25 06:28:20;;;;;;;76.72;35.63;;;2.40;99.90;;;;;;4939946;29;20126;-83
2023/01/25 06:30:46;;;;;;;66.45;28.15;;;2.40;99.90;;;;;;4940156;29;20114;-83
2023/01/25 06:33:12;;;;;;;50.17;20.65;;;2.40;99.90;;;;;;4940305;29;20043;-83
2023/01/25 06:35:39;;;;;;;52.05;24.33;;;2.40;99.90;;;;;;4940372;29;20027;-84
2023/01/25 06:38:05;;;;;;;163.15;60.85;;;2.40;99.90;;;;;;4956924;28;20533;-84
2023/01/25 06:40:31;;;;;;;94.35;37.42;;;2.40;99.90;;;;;;4933472;29;20025;-84
2023/01/25 06:43:10;;;;;;;124.38;49.88;;;2.50;99.90;;;;;;4939989;29;20114;-83
2023/01/25 06:45:36;;;;;;;62.17;26.88;;;2.50;99.90;;;;;;4939871;29;20446;-83
2023/01/25 06:48:02;;;;;;;50.10;21.55;;;2.50;99.90;;;;;;4956510;28;20026;-83
2023/01/25 06:50:28;;;;;;;37.38;19.30;;;2.60;99.90;;;;;;4939328;29;20039;-82
2023/01/25 06:52:54;;;;;;;46.35;21.45;;;2.60;99.90;;;;;;4939708;29;20033;-81
2023/01/25 06:55:21;;;;;;;46.67;22.58;;;2.50;99.90;;;;;;4956918;29;20332;-81
2023/01/25 06:57:47;;;;;;;36.83;18.50;;;2.50;99.90;;;;;;4937165;29;20024;-82
2023/01/25 07:00:16;;;;;;;59.75;24.73;;;2.50;99.90;;;;;;4936884;29;20028;-82
2023/01/25 07:02:42;;;;;;;45.55;19.60;;;2.50;99.90;;;;;;4955133;29;20082;-83
2023/01/25 07:05:08;;;;;;;45.30;19.88;;;2.50;99.90;;;;;;4940223;29;20419;-82
2023/01/25 07:07:34;;;;;;;69.32;25.15;;;2.50;99.90;;;;;;4940002;29;20030;-84
2023/01/25 07:10:00;;;;;;;43.95;18.33;;;2.50;99.90;;;;;;4957281;29;20031;-84
2023/01/25 07:12:30;;;;;;;52.30;22.08;;;2.50;99.90;;;;;;4939796;29;20035;-82
2023/01/25 07:14:55;;;;;;;52.65;21.10;;;2.50;99.90;;;;;;4922694;29;20040;-82
2023/01/25 07:17:21;;;;;;;115.72;39.17;;;2.50;99.90;;;;;;4938302;29;20451;-82
2023/01/25 07:19:47;;;;;;;114.72;37.55;;;2.50;99.90;;;;;;4937773;29;20028;-82
2023/01/25 07:22:13;;;;;;;89.72;31.13;;;2.60;99.90;;;;;;4937942;29;20028;-82
2023/01/25 07:24:39;;;;;;;67.82;25.63;;;2.60;99.90;;;;;;4920759;29;20114;-82
2023/01/25 07:27:04;;;;;;;51.30;23.55;;;2.60;99.90;;;;;;4920660;29;20030;-82
2023/01/25 07:29:30;;;;;;;880.17;334.88;;;2.70;99.90;;;;;;4921977;29;20440;-82
2023/01/25 07:31:56;;;;;;;122.80;58.55;;;2.60;99.90;;;;;;4956239;29;20023;-82
2023/01/25 07:34:22;;;;;;;54.08;28.98;;;2.60;99.90;;;;;;4939261;29;20086;-82
2023/01/25 07:36:47;;;;;;;83.22;36.67;;;2.60;99.90;;;;;;4938888;29;20542;-82
2023/01/25 07:39:13;;;;;;;37.83;20.48;;;2.70;99.90;;;;;;4955777;29;20025;-82
2023/01/25 07:41:39;;;;;;;146.30;53.55;;;2.70;99.90;;;;;;4938416;29;20356;-83
2023/01/25 07:44:05;;;;;;;78.25;31.45;;;2.80;99.90;;;;;;4955762;29;20030;-82
2023/01/25 07:46:31;;;;;;;127.25;47.80;;;2.80;99.90;;;;;;4938781;29;20035;-83
2023/01/25 07:48:59;;;;;;;192.38;76.55;;;2.90;99.90;;;;;;4938604;29;20019;-82
2023/01/25 07:51:26;;;;;;;75.47;35.47;;;2.90;99.90;;;;;;4954223;29;20034;-83
2023/01/25 07:54:01;;;;;;;46.05;21.88;;;2.90;99.90;;;;;;4938846;29;20387;-82
2023/01/25 07:56:32;;;;;;;43.97;20.13;;;2.90;99.90;;;;;;4948809;29;20082;-82
2023/01/25 07:59:01;;;;;;;48.58;22.63;;;3.00;99.90;;;;;;4933589;29;20528;-83
2023/01/25 08:01:30;;;;;;;43.35;19.33;;;3.00;99.90;;;;;;4938588;29;20066;-83
2023/01/25 08:03:57;;;;;;;122.90;52.92;;;3.00;99.90;;;;;;4938801;29;20038;-83
2023/01/25 08:06:37;;;;;;;38.33;18.77;;;3.10;99.90;;;;;;4935510;29;20538;-84
2023/01/25 08:09:13;;;;;;;42.88;20.02;;;3.00;99.90;;;;;;4938613;29;20063;-84
2023/01/25 08:11:40;;;;;;;31.98;16.15;;;3.00;99.90;;;;;;4936028;29;20034;-82
2023/01/25 08:14:07;;;;;;;98.32;39.17;;;3.00;99.90;;;;;;4935599;29;20082;-83
2023/01/25 08:16:32;;;;;;;43.25;21.75;;;3.10;99.90;;;;;;4944954;29;20560;-83
2023/01/25 08:19:00;;;;;;;28.95;13.45;;;3.10;99.90;;;;;;4938829;29;20118;-84
2023/01/25 08:21:30;;;;;;;48.00;22.90;;;3.10;99.90;;;;;;4938816;29;20039;-84
2023/01/25 08:24:01;;;;;;;48.97;23.02;;;3.20;99.90;;;;;;4938561;29;20374;-85
2023/01/25 08:26:27;;;;;;;38.17;19.53;;;3.20;99.90;;;;;;4955654;29;20106;-84
2023/01/25 08:28:54;;;;;;;42.00;19.58;;;3.20;99.90;;;;;;4928952;29;20027;-83
2023/01/25 08:31:23;;;;;;;122.00;50.78;;;3.20;99.90;;;;;;4936654;29;20454;-84
2023/01/25 08:33:50;;;;;;;200.98;67.90;;;3.20;99.90;;;;;;4936634;29;20455;-84
2023/01/25 08:36:17;;;;;;;223.35;81.65;;;3.20;99.90;;;;;;4936393;29;20023;-84
2023/01/25 08:38:43;;;;;;;221.13;80.85;;;3.20;99.90;;;;;;4919865;29;20051;-84
2023/01/25 08:41:12;;;;;;;60.60;30.08;;;3.20;99.90;;;;;;4926624;29;20038;-83
2023/01/25 08:43:38;;;;;;;85.47;39.65;;;3.30;99.90;;;;;;4930573;29;20127;-84
2023/01/25 08:46:04;;;;;;;124.63;56.90;;;3.40;99.90;;;;;;4926481;29;20027;-85
2023/01/25 08:48:30;;;;;;;193.75;96.78;;;3.50;99.90;;;;;;4938177;29;20027;-84
2023/01/25 08:50:57;;;;;;;43.25;21.80;;;3.50;99.90;;;;;;4937832;29;20529;-83
2023/01/25 08:53:22;;;;;;;55.40;28.67;;;3.40;99.90;;;;;;4938159;29;20063;-84
2023/01/25 08:55:49;;;;;;;28.50;16.30;;;3.40;99.90;;;;;;4938248;29;20027;-85
2023/01/25 08:58:18;;;;;;;40.15;22.15;;;3.40;99.90;;;;;;4951973;29;20024;-85
2023/01/25 09:00:44;;;;;;;77.25;38.28;;;3.40;99.90;;;;;;4955262;29;20131;-86
2023/01/25 09:03:10;;;;;;;47.58;22.88;;;3.60;99.90;;;;;;4937627;29;20027;-86
2023/01/25 09:05:37;;;;;;;46.13;22.70;;;3.50;99.90;;;;;;4954965;29;20023;-86
2023/01/25 09:08:05;;;;;;;41.42;18.88;;;3.60;99.90;;;;;;4937875;29;20035;-86
2023/01/25 09:10:32;;;;;;;74.28;29.65;;;3.60;99.90;;;;;;4939584;29;20028;-84
2023/01/25 09:12:57;;;;;;;49.10;24.33;;;3.70;99.90;;;;;;4941733;29;20023;-82
2023/01/25 09:15:23;;;;;;;44.42;21.67;;;3.70;99.90;;;;;;4941587;29;20043;-84
2023/01/25 09:17:58;;;;;;;48.33;26.02;;;3.70;99.90;;;;;;4941923;29;20027;-83
2023/01/25 09:20:24;;;;;;;50.00;25.80;;;3.80;99.90;;;;;;4936329;29;20035;-83
2023/01/25 09:22:49;;;;;;;40.35;19.38;;;3.90;99.90;;;;;;4941761;29;20027;-86
2023/01/25 09:25:15;;;;;;;46.42;24.05;;;3.80;99.90;;;;;;4941319;29;20031;-85
2023/01/25 09:27:41;;;;;;;29.75;15.52;;;3.90;99.90;;;;;;4940683;29;20502;-85
2023/01/25 09:30:09;;;;;;;66.65;33.47;;;4.00;99.90;;;;;;4936730;29;20034;-84
2023/01/25 09:32:35;;;;;;;67.90;34.30;;;4.00;99.90;;;;;;4936322;29;20110;-84
2023/01/25 09:35:01;;;;;;;68.95;33.33;;;3.90;99.90;;;;;;4940216;29;20118;-84
2023/01/25 09:37:26;;;;;;;104.30;38.72;;;4.00;99.90;;;;;;4940705;28;20047;-84
2023/01/25 09:39:52;;;;;;;57.30;24.40;;;4.10;99.90;;;;;;4974489;28;20369;-84
2023/01/25 09:42:37;;;;;;;131.07;48.58;;;4.10;99.90;;;;;;4978022;28;20018;-84
2023/01/25 09:45:05;;;;;;;82.20;38.42;;;4.10;99.90;;;;;;4962657;28;20676;-83
2023/01/25 09:47:34;;;;;;;222.32;79.75;;;4.20;99.90;;;;;;4961459;28;20015;-85
2023/01/25 09:50:27;;;;;;;330.38;133.50;;;4.20;99.90;;;;;;4976975;28;20070;-85
2023/01/25 09:53:18;;;;;;;345.17;134.70;;;4.10;99.90;;;;;;4976855;28;20117;-86
2023/01/25 09:55:49;;;;;;;229.90;91.93;;;4.10;99.90;;;;;;4974386;28;20027;-85
2023/01/25 09:58:20;;;;;;;416.83;160.23;;;4.20;99.90;;;;;;4957359;29;20158;-84
2023/01/25 10:00:51;;;;;;;80.32;39.30;;;4.20;99.90;;;;;;4972865;28;20116;-84
2023/01/25 10:03:26;;;;;;;109.47;47.17;;;4.20;99.90;;;;;;4976638;28;20037;-84
2023/01/25 10:06:00;;;;;;;221.40;98.88;;;4.20;99.90;;;;;;4977121;28;20470;-85
2023/01/25 10:08:47;;;;;;;95.95;45.67;;;4.10;99.90;;;;;;4964973;28;20442;-85
2023/01/25 10:11:23;;;;;;;135.10;56.33;;;4.20;99.90;;;;;;4973758;28;20449;-85
2023/01/25 10:13:49;;;;;;;53.28;23.45;;;4.10;99.90;;;;;;4976502;28;20050;-84
2023/01/25 10:16:48;;;;;;;102.13;42.67;;;4.00;99.90;;;;;;4976558;28;20102;-85
2023/01/25 10:19:39;;;;;;;108.82;44.88;;;4.00;99.90;;;;;;4971985;28;20066;-86
2023/01/25 10:22:15;;;;;;;45.30;21.85;;;3.90;99.90;;;;;;4970457;28;20097;-86
2023/01/25 10:24:52;;;;;;;36.78;17.58;;;3.90;99.90;;;;;;4973920;28;20194;-86
2023/01/25 10:27:24;;;;;;;67.20;28.40;;;4.00;99.90;;;;;;4974327;28;20450;-83
2023/01/25 10:29:55;;;;;;;95.50;40.10;;;4.00;99.90;;;;;;4962816;28;20493;-84
2023/01/25 10:32:33;;;;;;;81.25;35.20;;;4.00;99.90;;;;;;4958460;28;20028;-84
2023/01/25 10:35:17;;;;;;;57.47;26.83;;;4.00;99.90;;;;;;4976105;28;20038;-84
2023/01/25 10:37:44;;;;;;;44.00;22.00;;;4.00;99.90;;;;;;4964422;28;20035;-84
2023/01/25 10:40:25;;;;;;;137.75;56.60;;;4.10;99.90;;;;;;4921533;29;20031;-84
2023/01/25 10:42:59;;;;;;;195.43;78.83;;;4.10;99.90;;;;;;4923172;29;20031;-84
2023/01/25 10:45:25;;;;;;;210.38;88.78;;;4.20;99.90;;;;;;4929336;29;20257;-84
2023/01/25 10:47:56;;;;;;;207.90;90.70;;;4.30;99.90;;;;;;4940546;29;20026;-85
2023/01/25 10:50:41;;;;;;;207.68;87.75;;;4.20;99.90;;;;;;4957746;29;20118;-83
2023/01/25 10:53:21;;;;;;;159.23;63.22;;;4.10;99.90;;;;;;4940369;29;20058;-83
2023/01/25 10:55:59;;;;;;;424.90;164.85;;;4.10;99.90;;;;;;4940562;29;20370;-83
2023/01/25 10:58:46;;;;;;;275.40;107.70;;;4.10;99.90;;;;;;4940179;29;20023;-84
2023/01/25 11:01:33;;;;;;;229.02;89.90;;;4.10;99.90;;;;;;4938257;29;20374;-84
2023/01/25 11:04:00;;;;;;;232.35;91.18;;;4.20;99.90;;;;;;4946301;29;20042;-84
2023/01/25 11:06:33;;;;;;;54.97;26.90;;;4.10;99.90;;;;;;4957341;29;20027;-85
2023/01/25 11:09:00;;;;;;;47.22;22.00;;;4.10;99.90;;;;;;4938623;29;20026;-85
2023/01/25 11:11:33;;;;;;;31.70;15.50;;;4.10;99.90;;;;;;4956812;29;20027;-85
2023/01/25 11:13:59;;;;;;;77.25;32.55;;;4.10;99.90;;;;;;4956928;29;20066;-84
2023/01/25 11:16:34;;;;;;;35.88;16.70;;;4.10;99.90;;;;;;4940460;29;20054;-85
2023/01/25 11:19:01;;;;;;;46.53;22.77;;;4.10;99.90;;;;;;4939826;29;20030;-84
2023/01/25 11:21:33;;;;;;;43.85;19.58;;;4.10;99.90;;;;;;4956321;29;20264;-85
2023/01/25 11:24:00;;;;;;;33.58;12.73;;;4.20;99.90;;;;;;4939167;29;20126;-84
2023/01/25 11:26:26;;;;;;;44.65;17.25;;;4.10;99.90;;;;;;4956217;29;20087;-85
2023/01/25 11:29:13;;;;;;;185.50;73.13;;;4.10;99.90;;;;;;4939125;29;20473;-84
2023/01/25 11:31:44;;;;;;;118.22;56.88;;;4.10;99.90;;;;;;4937253;29;20035;-84
2023/01/25 11:34:16;;;;;;;59.75;31.02;;;4.10;99.90;;;;;;4956071;28;20035;-84
2023/01/25 11:36:58;;;;;;;40.33;19.20;;;4.00;99.90;;;;;;4943935;28;20049;-85
2023/01/25 11:39:57;;;;;;;83.65;33.63;;;4.00;99.90;;;;;;4969670;28;20442;-85
2023/01/25 11:42:25;;;;;;;118.80;60.53;;;4.10;99.90;;;;;;4970959;28;20125;-85
2023/01/25 11:45:09;;;;;;;93.60;44.03;;;4.10;99.90;;;;;;4974808;28;20027;-85
2023/01/25 11:48:12;;;;;;;84.25;39.90;;;4.20;99.90;;;;;;4974501;28;20023;-85
2023/01/25 11:50:41;;;;;;;77.78;33.03;;;4.30;99.90;;;;;;4974649;28;20362;-83
2023/01/25 11:53:27;;;;;;;113.10;48.35;;;4.20;99.90;;;;;;4975324;28;20018;-84
2023/01/25 11:56:01;;;;;;;81.57;37.70;;;4.30;99.90;;;;;;4975621;28;20440;-84
2023/01/25 11:59:21;;;;;;;43.92;21.13;;;4.30;99.90;;;;;;4974452;28;20027;-83
2023/01/25 12:02:24;;;;;;;60.30;26.90;;;4.20;99.90;;;;;;4933528;28;20122;-83
2023/01/25 12:05:08;;;;;;;36.20;17.15;;;4.20;99.90;;;;;;4974335;28;20034;-83
2023/01/25 12:07:49;;;;;;;59.40;29.45;;;4.20;99.90;;;;;;4974486;28;20035;-84
2023/01/25 12:10:29;;;;;;;89.38;34.50;;;4.20;99.90;;;;;;4975404;28;20034;-84
2023/01/25 12:13:00;;;;;;;44.13;20.10;;;4.20;99.90;;;;;;4974374;28;20039;-84
2023/01/25 12:15:35;;;;;;;62.58;30.38;;;4.20;99.90;;;;;;4975424;28;20038;-85
2023/01/25 12:18:07;;;;;;;43.55;20.42;;;4.20;99.90;;;;;;4975177;28;20026;-84
2023/01/25 12:20:50;;;;;;;76.07;37.83;;;4.20;99.90;;;;;;4974048;28;20030;-84
2023/01/25 12:23:34;;;;;;;78.88;37.60;;;4.30;99.90;;;;;;4975455;28;20098;-84
2023/01/25 12:26:17;;;;;;;93.00;40.03;;;4.40;99.90;;;;;;4975161;28;20023;-85
2023/01/25 12:29:09;;;;;;;60.20;27.75;;;4.30;99.90;;;;;;4974032;28;20366;-84
2023/01/25 12:31:48;;;;;;;48.40;24.13;;;4.20;99.90;;;;;;4975084;28;20521;-85
2023/01/25 12:34:21;;;;;;;60.17;28.63;;;4.10;99.90;;;;;;4972760;28;20038;-84
2023/01/25 12:36:49;;;;;;;263.60;89.50;;;4.10;99.90;;;;;;4973932;28;20072;-83
2023/01/25 12:39:23;;;;;;;298.65;102.72;;;4.10;99.90;;;;;;4974882;28;20027;-84
2023/01/25 12:42:18;;;;;;;92.88;39.83;;;4.10;99.90;;;;;;4975099;28;20023;-83
2023/01/25 12:44:52;;;;;;;213.77;71.80;;;3.90;99.90;;;;;;4973226;28;20062;-83
2023/01/25 12:47:21;;;;;;;328.92;104.03;;;3.90;99.90;;;;;;4973795;28;20054;-83
2023/01/25 12:50:01;;;;;;;128.77;48.95;;;3.90;99.90;;;;;;4973535;28;20461;-83
2023/01/25 12:52:37;;;;;;;95.80;44.47;;;3.90;99.90;;;;;;4973743;28;20014;-83